Kezdőlap
METAR-TAF:

METAR-TAF

Repülőterek :

Scotts Seaplane Base

Crane Lake, Minnesota, Amerikai Egyesült Államok

földrajzi szélesség: 48-15-59N, földrajzi hosszúság: 092-29-01W, magasság: 341 m

Jelenlegi meteorológiai megfigyelések

A jelentés 13 perccel ezelõtt készült, 21:13 UTC
Északi szél 5 kt
Hőmérséklet -7°C
Páratartalom 24%
Légköri nyomás 1016 hPa
Látótávolság: 16.1 km
Derült ég

METAR: KCDD 232113Z AUTO 01005KT 10SM CLR M07/M24 A3001 RMK AO2 TSNO

Idő: 15:26 (21:26 UTC)


TAF: hiányzik

Meteorológiai megfigyelések és előrejelzések több, mint 4000 repülőtéren (METAR és TAF jelentéseket).

A térképen piros és sárga pontok jelzik az elérhető meteorológiai állomásokat.

Mozgassa az egeret a pont fölött, hogy megjelenjen az állomás neve.

Azután kattintson az időjárási megfigyelések és előrejelzések megtekintéséhez.

A térkép megváltoztatása: kattintson a fekete keresztel jelölt zöld gombra ráközelítéshez, a vonallal jelölt zöld gombra távolításhoz, vagy a zöld nyilakra a szomszédos térképek eléréséhez.


METAR-TAF: